Time;durP1;ratioP1;P1;durP2;ratioP2;P2;SDS_P1;SDS_P2;PMS_P1;PMS_P2;Temp;Humidity;BMP_temperature;BMP_pressure;BME280_temperature;BME280_humidity;BME280_pressure;Samples;Min_cycle;Max_cycle;Signal;HPM_P1;HPM_P2
2023/07/31 00:01:31;;;;;;;;;;;;;;;;;;2198007;59;2539;-24
2023/07/31 00:04:01;;;;;;;;;;;;;;;;;;2198301;59;1780;-24
2023/07/31 00:06:31;;;;;;;;;;;;;;;;;;2198007;66;1956;-24
2023/07/31 00:09:02;;;;;;;;;;;;;;;;;;2197447;66;1948;-24
2023/07/31 00:11:32;;;;;;;;;;;;;;;;;;2198228;59;3058;-24
2023/07/31 00:14:02;;;;;;;;;;;;;;;;;;2198078;66;1748;-24
2023/07/31 00:16:33;;;;;;;;;;;;;;;;;;2197506;66;1748;-24
2023/07/31 00:19:03;;;;;;;;;;;;;;;;;;2197747;59;2611;-24
2023/07/31 00:21:36;;;;;;;;;;;;;;;;;;2198712;66;2268;-24
2023/07/31 00:24:06;;;;;;;;;;;;;;;;;;2197392;59;1566;-24
2023/07/31 00:26:37;;;;;;;;;;;;;;;;;;2198040;59;1998;-24
2023/07/31 00:29:07;;;;;;;;;;;;;;;;;;2197184;59;3025;-24
2023/07/31 00:31:37;;;;;;;;;;;;;;;;;;2197555;59;2012;-24
2023/07/31 00:34:08;;;;;;;;;;;;;;;;;;2197430;66;1891;-24
2023/07/31 00:36:38;;;;;;;;;;;;;;;;;;2197645;59;2502;-24
2023/07/31 00:39:08;;;;;;;;;;;;;;;;;;2197229;66;1859;-24
2023/07/31 00:41:38;;;;;;;;;;;;;;;;;;2197549;66;2520;-24
2023/07/31 00:44:08;;;;;;;;;;;;;;;;;;2196765;59;2138;-24
2023/07/31 00:46:38;;;;;;;;;;;;;;;;;;2198213;59;1500;-24
2023/07/31 00:49:09;;;;;;;;;;;;;;;;;;2197809;67;2377;-24
2023/07/31 00:51:40;;;;;;;;;;;;;;;;;;2197904;59;2503;-24
2023/07/31 00:54:11;;;;;;;;;;;;;;;;;;2195461;59;2228;-24
2023/07/31 00:56:41;;;;;;;;;;;;;;;;;;2197122;59;1796;-24
2023/07/31 00:59:12;;;;;;;;;;;;;;;;;;2197124;59;2385;-24
2023/07/31 01:01:42;;;;;;;;;;;;;;;;;;2197396;59;1691;-24
2023/07/31 01:04:13;;;;;;;;;;;;;;;;;;2197280;59;2041;-24
2023/07/31 01:07:12;;;;;;;;;;;;;;;;;;2197191;67;1828;-24
2023/07/31 01:09:47;;;;;;;;;;;;;;;;;;2196073;66;2371;-25
2023/07/31 01:12:21;;;;;;;;;;;;;;;;;;2196010;59;3238;-24
2023/07/31 01:15:00;;;;;;;;;;;;;;;;;;2197069;66;1753;-24
2023/07/31 01:17:31;;;;;;;;;;;;;;;;;;2197135;67;2696;-24
2023/07/31 01:20:03;;;;;;;;;;;;;;;;;;2196968;66;2753;-24
2023/07/31 01:22:36;;;;;;;;;;;;;;;;;;2197836;59;2245;-24
2023/07/31 01:25:16;;;;;;;;;;;;;;;;;;2195870;67;2573;-24
2023/07/31 01:27:53;;;;;;;;;;;;;;;;;;2198996;59;1957;-25
2023/07/31 01:30:25;;;;;;;;;;;;;;;;;;2196595;59;2519;-24
2023/07/31 01:32:56;;;;;;;;;;;;;;;;;;2196900;59;3050;-25
2023/07/31 01:35:26;;;;;;;;;;;;;;;;;;2198214;58;1883;-24
2023/07/31 01:37:56;;;;;;;;;;;;;;;;;;2197602;66;1829;-24
2023/07/31 01:40:27;;;;;;;;;;;;;;;;;;2197824;59;2697;-24
2023/07/31 01:42:57;;;;;;;;;;;;;;;;;;2196905;59;2748;-25
2023/07/31 01:45:27;;;;;;;;;;;;;;;;;;2197209;59;2444;-24
2023/07/31 01:47:57;;;;;;;;;;;;;;;;;;2197371;66;2901;-25
2023/07/31 01:50:27;;;;;;;;;;;;;;;;;;2198096;59;2641;-24
2023/07/31 01:52:58;;;;;;;;;;;;;;;;;;2196117;59;1732;-24
2023/07/31 01:55:28;;;;;;;;;;;;;;;;;;2199252;59;1827;-25
2023/07/31 01:57:58;;;;;;;;;;;;;;;;;;2197887;66;2002;-24
2023/07/31 02:00:28;;;;;;;;;;;;;;;;;;2199295;59;1818;-25
2023/07/31 02:02:59;;;;;;;;;;;;;;;;;;2198427;66;2201;-24
2023/07/31 02:05:29;;;;;;;;;;;;;;;;;;2198715;66;2898;-24
2023/07/31 02:07:59;;;;;;;;;;;;;;;;;;2197189;66;1757;-24
2023/07/31 02:10:30;;;;;;;;;;;;;;;;;;2198406;66;2096;-24
2023/07/31 02:13:00;;;;;;;;;;;;;;;;;;2197469;59;1766;-24
2023/07/31 02:15:30;;;;;;;;;;;;;;;;;;2198064;66;1965;-24
2023/07/31 02:18:01;;;;;;;;;;;;;;;;;;2198243;66;2411;-24
2023/07/31 02:20:33;;;;;;;;;;;;;;;;;;2198725;66;2074;-24
2023/07/31 02:23:04;;;;;;;;;;;;;;;;;;2195632;66;2888;-24
2023/07/31 02:25:37;;;;;;;;;;;;;;;;;;2196783;60;1959;-25
2023/07/31 02:28:07;;;;;;;;;;;;;;;;;;2197934;59;1791;-24
2023/07/31 02:30:37;;;;;;;;;;;;;;;;;;2198028;59;2226;-24
2023/07/31 02:33:10;;;;;;;;;;;;;;;;;;2197798;59;2016;-24
2023/07/31 02:35:41;;;;;;;;;;;;;;;;;;2198346;59;2650;-24
2023/07/31 02:38:11;;;;;;;;;;;;;;;;;;2197615;66;1864;-24
2023/07/31 02:40:41;;;;;;;;;;;;;;;;;;2197538;67;1795;-24
2023/07/31 02:43:11;;;;;;;;;;;;;;;;;;2197834;66;1863;-24
2023/07/31 02:45:42;;;;;;;;;;;;;;;;;;2194659;59;2546;-24
2023/07/31 02:48:12;;;;;;;;;;;;;;;;;;2198054;66;1973;-24
2023/07/31 02:50:42;;;;;;;;;;;;;;;;;;2197459;59;1989;-24
2023/07/31 02:53:12;;;;;;;;;;;;;;;;;;2197501;59;1691;-24
2023/07/31 02:55:43;;;;;;;;;;;;;;;;;;2197795;59;3033;-24
2023/07/31 02:58:16;;;;;;;;;;;;;;;;;;2198004;58;2630;-24
2023/07/31 03:00:46;;;;;;;;;;;;;;;;;;2198482;59;1859;-24
2023/07/31 03:03:16;;;;;;;;;;;;;;;;;;2199457;66;1799;-24
2023/07/31 03:05:46;;;;;;;;;;;;;;;;;;2196706;59;2599;-24
2023/07/31 03:08:17;;;;;;;;;;;;;;;;;;2197456;59;1821;-24
2023/07/31 03:10:47;;;;;;;;;;;;;;;;;;2198428;66;2822;-24
2023/07/31 03:13:17;;;;;;;;;;;;;;;;;;2198312;59;1857;-24
2023/07/31 03:15:47;;;;;;;;;;;;;;;;;;2197600;66;3087;-24
2023/07/31 03:18:18;;;;;;;;;;;;;;;;;;2197163;66;1791;-24
2023/07/31 03:20:48;;;;;;;;;;;;;;;;;;2197173;67;2029;-24
2023/07/31 03:23:21;;;;;;;;;;;;;;;;;;2196205;66;2588;-24
2023/07/31 03:25:55;;;;;;;;;;;;;;;;;;2197462;59;2257;-24
2023/07/31 03:28:25;;;;;;;;;;;;;;;;;;2197575;66;2510;-25
2023/07/31 03:30:55;;;;;;;;;;;;;;;;;;2196971;59;2487;-24
2023/07/31 03:33:26;;;;;;;;;;;;;;;;;;2197726;59;1781;-24
2023/07/31 03:35:56;;;;;;;;;;;;;;;;;;2197251;59;1992;-24
2023/07/31 03:38:27;;;;;;;;;;;;;;;;;;2198305;66;1481;-24
2023/07/31 03:40:58;;;;;;;;;;;;;;;;;;2197499;67;2086;-24
2023/07/31 03:43:29;;;;;;;;;;;;;;;;;;2198325;66;2054;-24
2023/07/31 03:46:00;;;;;;;;;;;;;;;;;;2197807;59;2304;-24
2023/07/31 03:48:30;;;;;;;;;;;;;;;;;;2197521;66;2519;-24
2023/07/31 03:51:00;;;;;;;;;;;;;;;;;;2199076;59;1931;-24
2023/07/31 03:53:31;;;;;;;;;;;;;;;;;;2198133;59;1510;-24
2023/07/31 03:56:04;;;;;;;;;;;;;;;;;;2199888;59;2786;-24
2023/07/31 03:58:35;;;;;;;;;;;;;;;;;;2197695;67;1714;-24
2023/07/31 04:01:06;;;;;;;;;;;;;;;;;;2197053;59;2065;-24
2023/07/31 04:03:36;;;;;;;;;;;;;;;;;;2198390;64;2272;-24
2023/07/31 04:06:07;;;;;;;;;;;;;;;;;;2198159;66;1555;-24
2023/07/31 04:08:37;;;;;;;;;;;;;;;;;;2198209;59;3458;-24
2023/07/31 04:11:07;;;;;;;;;;;;;;;;;;2197528;66;2013;-24
2023/07/31 04:13:38;;;;;;;;;;;;;;;;;;2198845;59;2960;-24
2023/07/31 04:16:08;;;;;;;;;;;;;;;;;;2196782;59;2344;-24
2023/07/31 04:18:38;;;;;;;;;;;;;;;;;;2198560;66;2929;-24
2023/07/31 04:21:09;;;;;;;;;;;;;;;;;;2198725;66;1996;-24
2023/07/31 04:23:40;;;;;;;;;;;;;;;;;;2196501;59;2263;-24
2023/07/31 04:26:10;;;;;;;;;;;;;;;;;;2195997;59;2755;-24
2023/07/31 04:28:40;;;;;;;;;;;;;;;;;;2198238;66;1849;-24
2023/07/31 04:31:10;;;;;;;;;;;;;;;;;;2197503;59;1937;-24
2023/07/31 04:33:41;;;;;;;;;;;;;;;;;;2197890;59;1642;-24
2023/07/31 04:36:11;;;;;;;;;;;;;;;;;;2197178;59;1726;-24
2023/07/31 04:38:41;;;;;;;;;;;;;;;;;;2197748;66;1829;-24
2023/07/31 04:41:11;;;;;;;;;;;;;;;;;;2196979;66;2035;-24
2023/07/31 04:43:41;;;;;;;;;;;;;;;;;;2197845;66;1611;-24
2023/07/31 04:46:12;;;;;;;;;;;;;;;;;;2196780;59;1980;-24
2023/07/31 04:48:42;;;;;;;;;;;;;;;;;;2198194;66;1920;-25
2023/07/31 04:51:13;;;;;;;;;;;;;;;;;;2197127;59;2628;-25
2023/07/31 04:53:43;;;;;;;;;;;;;;;;;;2196869;59;2750;-24
2023/07/31 04:56:15;;;;;;;;;;;;;;;;;;2197957;59;2355;-25
2023/07/31 04:58:45;;;;;;;;;;;;;;;;;;2198624;66;1898;-25
2023/07/31 05:01:15;;;;;;;;;;;;;;;;;;2197881;59;1714;-24
2023/07/31 05:03:46;;;;;;;;;;;;;;;;;;2197314;59;2271;-24
2023/07/31 05:06:16;;;;;;;;;;;;;;;;;;2197625;66;3063;-25
2023/07/31 05:08:46;;;;;;;;;;;;;;;;;;2197665;59;2038;-25
2023/07/31 05:11:16;;;;;;;;;;;;;;;;;;2197051;59;1940;-25
2023/07/31 05:13:46;;;;;;;;;;;;;;;;;;2197565;66;2150;-25
2023/07/31 05:16:17;;;;;;;;;;;;;;;;;;2197165;67;1716;-24
2023/07/31 05:18:47;;;;;;;;;;;;;;;;;;2196840;66;1487;-25
2023/07/31 05:21:17;;;;;;;;;;;;;;;;;;2197134;66;1851;-25
2023/07/31 05:23:47;;;;;;;;;;;;;;;;;;2197437;66;1681;-24
2023/07/31 05:26:18;;;;;;;;;;;;;;;;;;2195350;59;2336;-24
2023/07/31 05:28:48;;;;;;;;;;;;;;;;;;2196947;67;1664;-25
2023/07/31 05:31:18;;;;;;;;;;;;;;;;;;2201341;59;2030;-25
2023/07/31 05:33:50;;;;;;;;;;;;;;;;;;2198757;66;2634;-25
2023/07/31 05:36:20;;;;;;;;;;;;;;;;;;2198473;59;1797;-25
2023/07/31 05:38:50;;;;;;;;;;;;;;;;;;2198044;67;1832;-25
2023/07/31 05:41:20;;;;;;;;;;;;;;;;;;2197930;59;2062;-25
2023/07/31 05:43:51;;;;;;;;;;;;;;;;;;2197431;66;2299;-25
2023/07/31 05:46:21;;;;;;;;;;;;;;;;;;2197245;59;2955;-25
2023/07/31 05:48:51;;;;;;;;;;;;;;;;;;2197317;59;1789;-25
2023/07/31 05:51:22;;;;;;;;;;;;;;;;;;2197356;59;2000;-25
2023/07/31 05:53:52;;;;;;;;;;;;;;;;;;2193398;59;2125;-22
2023/07/31 05:56:22;;;;;;;;;;;;;;;;;;2196567;59;2238;-22
2023/07/31 05:58:52;;;;;;;;;;;;;;;;;;2197540;67;2025;-23
2023/07/31 06:01:22;;;;;;;;;;;;;;;;;;2197670;59;2194;-22
2023/07/31 06:03:53;;;;;;;;;;;;;;;;;;2197595;59;1979;-22
2023/07/31 06:06:23;;;;;;;;;;;;;;;;;;2197906;66;1809;-23
2023/07/31 06:08:53;;;;;;;;;;;;;;;;;;2196592;67;2052;-23
2023/07/31 06:11:23;;;;;;;;;;;;;;;;;;2197801;59;1975;-23
2023/07/31 06:13:54;;;;;;;;;;;;;;;;;;2197746;66;2717;-23
2023/07/31 06:16:24;;;;;;;;;;;;;;;;;;2198002;66;2003;-22
2023/07/31 06:18:54;;;;;;;;;;;;;;;;;;2197248;66;2371;-25
2023/07/31 06:21:25;;;;;;;;;;;;;;;;;;2197388;67;1764;-23
2023/07/31 06:23:55;;;;;;;;;;;;;;;;;;2197877;59;1582;-23
2023/07/31 06:26:25;;;;;;;;;;;;;;;;;;2196478;59;2158;-23
2023/07/31 06:28:55;;;;;;;;;;;;;;;;;;2197142;59;3015;-23
2023/07/31 06:31:26;;;;;;;;;;;;;;;;;;2197452;59;2693;-23
2023/07/31 06:33:56;;;;;;;;;;;;;;;;;;2197232;59;2375;-23
2023/07/31 06:36:26;;;;;;;;;;;;;;;;;;2197550;59;2092;-23
2023/07/31 06:38:56;;;;;;;;;;;;;;;;;;2197243;66;2267;-23
2023/07/31 06:41:27;;;;;;;;;;;;;;;;;;2197912;66;1943;-23
2023/07/31 06:43:57;;;;;;;;;;;;;;;;;;2197808;66;1756;-23
2023/07/31 06:46:27;;;;;;;;;;;;;;;;;;2197942;59;1868;-23
2023/07/31 06:48:58;;;;;;;;;;;;;;;;;;2197784;66;2417;-23
2023/07/31 06:51:28;;;;;;;;;;;;;;;;;;2198290;59;2108;-23
2023/07/31 06:53:58;;;;;;;;;;;;;;;;;;2197577;66;1880;-23
2023/07/31 06:56:29;;;;;;;;;;;;;;;;;;2198093;59;2775;-23
2023/07/31 06:59:02;;;;;;;;;;;;;;;;;;2197408;66;2525;-23
2023/07/31 07:01:33;;;;;;;;;;;;;;;;;;2194872;59;1785;-23
2023/07/31 07:04:03;;;;;;;;;;;;;;;;;;2197863;59;1918;-23
2023/07/31 07:06:33;;;;;;;;;;;;;;;;;;2197220;66;2365;-23
2023/07/31 07:09:04;;;;;;;;;;;;;;;;;;2196872;66;1682;-23
2023/07/31 07:11:34;;;;;;;;;;;;;;;;;;2197411;66;2046;-23
2023/07/31 07:14:04;;;;;;;;;;;;;;;;;;2199000;59;2573;-23
2023/07/31 07:16:35;;;;;;;;;;;;;;;;;;2199813;66;2141;-23
2023/07/31 07:19:05;;;;;;;;;;;;;;;;;;2196332;66;2529;-23
2023/07/31 07:21:35;;;;;;;;;;;;;;;;;;2197717;67;2470;-23
2023/07/31 07:24:06;;;;;;;;;;;;;;;;;;2197513;67;2305;-23
2023/07/31 07:26:36;;;;;;;;;;;;;;;;;;2197305;59;2056;-23
2023/07/31 07:29:07;;;;;;;;;;;;;;;;;;2197332;66;2457;-23
2023/07/31 07:31:38;;;;;;;;;;;;;;;;;;2197464;59;2013;-23
2023/07/31 07:34:08;;;;;;;;;;;;;;;;;;2197930;59;2071;-24
2023/07/31 07:36:38;;;;;;;;;;;;;;;;;;2199515;58;1782;-24
2023/07/31 07:39:09;;;;;;;;;;;;;;;;;;2194006;66;2409;-24
2023/07/31 07:41:40;;;;;;;;;;;;;;;;;;2198490;66;2366;-24
2023/07/31 07:44:10;;;;;;;;;;;;;;;;;;2197699;66;2241;-24
2023/07/31 07:46:40;;;;;;;;;;;;;;;;;;2197926;59;2559;-24
2023/07/31 07:49:10;;;;;;;;;;;;;;;;;;2198647;59;2140;-24
2023/07/31 07:51:41;;;;;;;;;;;;;;;;;;2199306;59;1943;-24
2023/07/31 07:54:11;;;;;;;;;;;;;;;;;;2197248;59;3101;-24
2023/07/31 07:56:42;;;;;;;;;;;;;;;;;;2198136;59;2708;-24
2023/07/31 07:59:12;;;;;;;;;;;;;;;;;;2198656;66;1681;-24
2023/07/31 08:01:42;;;;;;;;;;;;;;;;;;2197690;59;1633;-24
2023/07/31 08:04:12;;;;;;;;;;;;;;;;;;2198153;59;2707;-24
2023/07/31 08:06:43;;;;;;;;;;;;;;;;;;2196799;66;1837;-24
2023/07/31 08:09:13;;;;;;;;;;;;;;;;;;2198403;59;1726;-24
2023/07/31 08:11:43;;;;;;;;;;;;;;;;;;2197894;66;1928;-24
2023/07/31 08:14:14;;;;;;;;;;;;;;;;;;2198663;66;2530;-24
2023/07/31 08:16:44;;;;;;;;;;;;;;;;;;2198385;66;2334;-24
2023/07/31 08:19:14;;;;;;;;;;;;;;;;;;2197089;67;2035;-24
2023/07/31 08:21:45;;;;;;;;;;;;;;;;;;2197886;66;1982;-24
2023/07/31 08:24:15;;;;;;;;;;;;;;;;;;2194067;66;1801;-24
2023/07/31 08:26:45;;;;;;;;;;;;;;;;;;2196397;59;2219;-24
2023/07/31 08:29:15;;;;;;;;;;;;;;;;;;2196368;59;2323;-24
2023/07/31 08:31:46;;;;;;;;;;;;;;;;;;2197352;59;2518;-24
2023/07/31 08:34:16;;;;;;;;;;;;;;;;;;2196791;59;1948;-24
2023/07/31 08:36:46;;;;;;;;;;;;;;;;;;2197867;59;1992;-24
2023/07/31 08:39:17;;;;;;;;;;;;;;;;;;2196401;66;2386;-24
2023/07/31 08:41:47;;;;;;;;;;;;;;;;;;2198760;66;1933;-24
2023/07/31 08:44:17;;;;;;;;;;;;;;;;;;2197066;59;2033;-24
2023/07/31 08:46:48;;;;;;;;;;;;;;;;;;2197817;66;1752;-22
2023/07/31 08:49:20;;;;;;;;;;;;;;;;;;2196832;66;1828;-24
2023/07/31 08:51:52;;;;;;;;;;;;;;;;;;2197662;59;1941;-24
2023/07/31 08:54:22;;;;;;;;;;;;;;;;;;2196927;59;2668;-24
2023/07/31 08:56:52;;;;;;;;;;;;;;;;;;2196206;59;2187;-24
2023/07/31 08:59:23;;;;;;;;;;;;;;;;;;2197450;66;1725;-24
2023/07/31 09:01:55;;;;;;;;;;;;;;;;;;2197458;59;1802;-25
2023/07/31 09:04:26;;;;;;;;;;;;;;;;;;2197793;59;2203;-24
2023/07/31 09:06:59;;;;;;;;;;;;;;;;;;2196925;67;2842;-24
2023/07/31 09:09:30;;;;;;;;;;;;;;;;;;2197541;66;1894;-23
2023/07/31 09:12:01;;;;;;;;;;;;;;;;;;2197142;59;2611;-23
2023/07/31 09:14:32;;;;;;;;;;;;;;;;;;2197359;67;1762;-23
2023/07/31 09:17:02;;;;;;;;;;;;;;;;;;2196293;67;2101;-23
2023/07/31 09:19:34;;;;;;;;;;;;;;;;;;2197345;59;2269;-23
2023/07/31 09:22:07;;;;;;;;;;;;;;;;;;2196262;66;2369;-23
2023/07/31 09:24:37;;;;;;;;;;;;;;;;;;2197354;60;1628;-23
2023/07/31 09:27:08;;;;;;;;;;;;;;;;;;2196558;59;2359;-23
2023/07/31 09:29:38;;;;;;;;;;;;;;;;;;2196072;63;2553;-23
2023/07/31 09:32:15;;;;;;;;;;;;;;;;;;2193353;59;2259;-23
2023/07/31 09:34:45;;;;;;;;;;;;;;;;;;2196779;59;2342;-23
2023/07/31 09:37:16;;;;;;;;;;;;;;;;;;2198277;54;3620;-21
2023/07/31 09:39:47;;;;;;;;;;;;;;;;;;2197258;66;1798;-21
2023/07/31 09:42:26;;;;;;;;;;;;;;;;;;2199073;59;2428;-22
2023/07/31 09:45:06;;;;;;;;;;;;;;;;;;2198501;59;1998;-22
2023/07/31 09:47:37;;;;;;;;;;;;;;;;;;2213556;66;1795;-22
2023/07/31 09:50:07;;;;;;;;;;;;;;;;;;2216229;58;1933;-21
2023/07/31 09:52:38;;;;;;;;;;;;;;;;;;2216354;58;1765;-22
2023/07/31 09:55:09;;;;;;;;;;;;;;;;;;2216289;59;1452;-21
2023/07/31 09:57:43;;;;;;;;;;;;;;;;;;2217526;58;1572;-21
2023/07/31 10:00:17;;;;;;;;;;;;;;;;;;2215805;58;1367;-21
2023/07/31 10:02:48;;;;;;;;;;;;;;;;;;2216794;66;1719;-21
2023/07/31 10:05:19;;;;;;;;;;;;;;;;;;2216088;58;1327;-21
2023/07/31 10:07:55;;;;;;;;;;;;;;;;;;2216454;66;1668;-21
2023/07/31 10:10:27;;;;;;;;;;;;;;;;;;2216807;66;2001;-22
2023/07/31 10:12:58;;;;;;;;;;;;;;;;;;2216355;58;1602;-22
2023/07/31 10:15:29;;;;;;;;;;;;;;;;;;2216638;59;1470;-22
2023/07/31 10:18:00;;;;;;;;;;;;;;;;;;2216466;66;1783;-22
2023/07/31 10:20:31;;;;;;;;;;;;;;;;;;2217757;66;1649;-22
2023/07/31 10:23:01;;;;;;;;;;;;;;;;;;2216386;66;1167;-22
2023/07/31 10:25:32;;;;;;;;;;;;;;;;;;2218182;66;1310;-22
2023/07/31 10:28:03;;;;;;;;;;;;;;;;;;2216422;58;1300;-22
2023/07/31 10:30:38;;;;;;;;;;;;;;;;;;2216393;59;2344;-21
2023/07/31 10:33:08;;;;;;;;;;;;;;;;;;2216619;58;2581;-22
2023/07/31 10:35:38;;;;;;;;;;;;;;;;;;2218138;66;1754;-22
2023/07/31 10:38:12;;;;;;;;;;;;;;;;;;2217144;58;2597;-22
2023/07/31 10:40:42;;;;;;;;;;;;;;;;;;2217985;66;1918;-22
2023/07/31 10:43:24;;;;;;;;;;;;;;;;;;2216903;66;1742;-22
2023/07/31 10:45:54;;;;;;;;;;;;;;;;;;2215824;59;1925;-22
2023/07/31 10:48:32;;;;;;;;;;;;;;;;;;2217011;66;2028;-21
2023/07/31 10:51:07;;;;;;;;;;;;;;;;;;2217060;58;1970;-22
2023/07/31 10:53:38;;;;;;;;;;;;;;;;;;2217800;58;1813;-22
2023/07/31 10:56:09;;;;;;;;;;;;;;;;;;2216572;66;1187;-22
2023/07/31 10:58:39;;;;;;;;;;;;;;;;;;2213406;66;2039;-22
2023/07/31 11:01:09;;;;;;;;;;;;;;;;;;2216812;58;1694;-22
2023/07/31 11:03:42;;;;;;;;;;;;;;;;;;2217020;58;1377;-22
2023/07/31 11:06:13;;;;;;;;;;;;;;;;;;2215819;66;1265;-22
2023/07/31 11:08:50;;;;;;;;;;;;;;;;;;2218137;66;1656;-22
2023/07/31 11:11:20;;;;;;;;;;;;;;;;;;2216791;58;1956;-22
2023/07/31 11:13:57;;;;;;;;;;;;;;;;;;2217168;66;1201;-22
2023/07/31 11:16:27;;;;;;;;;;;;;;;;;;2217157;66;1569;-22
2023/07/31 11:18:58;;;;;;;;;;;;;;;;;;2217037;66;1584;-22
2023/07/31 11:21:28;;;;;;;;;;;;;;;;;;2216987;66;1559;-22
2023/07/31 11:24:01;;;;;;;;;;;;;;;;;;2217159;66;1355;-22
2023/07/31 11:26:31;;;;;;;;;;;;;;;;;;2216666;58;1971;-22
2023/07/31 11:29:02;;;;;;;;;;;;;;;;;;2216848;66;1599;-22
2023/07/31 11:31:39;;;;;;;;;;;;;;;;;;2215505;58;2743;-22
2023/07/31 11:34:09;;;;;;;;;;;;;;;;;;2217008;58;2312;-19
2023/07/31 11:36:39;;;;;;;;;;;;;;;;;;2216362;58;2041;-19
2023/07/31 11:39:10;;;;;;;;;;;;;;;;;;2212423;66;2313;-19
2023/07/31 11:41:41;;;;;;;;;;;;;;;;;;2217151;66;1443;-19
2023/07/31 11:44:11;;;;;;;;;;;;;;;;;;2216904;66;2304;-19
2023/07/31 11:46:42;;;;;;;;;;;;;;;;;;2217853;58;2529;-19
2023/07/31 11:49:12;;;;;;;;;;;;;;;;;;2216932;58;1966;-19
2023/07/31 11:51:42;;;;;;;;;;;;;;;;;;2217071;58;2354;-19
2023/07/31 11:54:13;;;;;;;;;;;;;;;;;;2216603;58;1492;-19
2023/07/31 11:56:44;;;;;;;;;;;;;;;;;;2217506;58;1511;-19
2023/07/31 11:59:15;;;;;;;;;;;;;;;;;;2216108;66;1751;-19
2023/07/31 12:01:46;;;;;;;;;;;;;;;;;;2215689;58;1886;-20
2023/07/31 12:04:16;;;;;;;;;;;;;;;;;;2216343;58;1958;-19
2023/07/31 12:06:47;;;;;;;;;;;;;;;;;;2217789;66;1706;-20
2023/07/31 12:09:17;;;;;;;;;;;;;;;;;;2216963;66;1805;-19
2023/07/31 12:11:47;;;;;;;;;;;;;;;;;;2217354;58;1952;-19
2023/07/31 12:14:22;;;;;;;;;;;;;;;;;;2216011;66;1297;-19
2023/07/31 12:16:55;;;;;;;;;;;;;;;;;;2217197;66;1242;-19
2023/07/31 12:19:29;;;;;;;;;;;;;;;;;;2217607;66;1455;-19
2023/07/31 12:22:00;;;;;;;;;;;;;;;;;;2216937;66;1747;-19
2023/07/31 12:24:30;;;;;;;;;;;;;;;;;;2216694;66;1375;-19
2023/07/31 12:27:00;;;;;;;;;;;;;;;;;;2217153;59;1230;-19
2023/07/31 12:29:34;;;;;;;;;;;;;;;;;;2217965;66;1290;-19
2023/07/31 12:32:17;;;;;;;;;;;;;;;;;;2216327;58;2697;-19
2023/07/31 12:34:48;;;;;;;;;;;;;;;;;;2217112;66;3996;-19
2023/07/31 12:37:18;;;;;;;;;;;;;;;;;;2216306;58;1772;-19
2023/07/31 12:39:48;;;;;;;;;;;;;;;;;;2217585;66;2242;-19
2023/07/31 12:42:18;;;;;;;;;;;;;;;;;;2216503;59;1904;-19
2023/07/31 12:44:48;;;;;;;;;;;;;;;;;;2217154;58;1740;-19
2023/07/31 12:47:19;;;;;;;;;;;;;;;;;;2216394;66;2618;-19
2023/07/31 12:49:49;;;;;;;;;;;;;;;;;;2217287;58;1935;-19
2023/07/31 12:52:19;;;;;;;;;;;;;;;;;;2217439;58;1435;-19
2023/07/31 12:54:49;;;;;;;;;;;;;;;;;;2216293;58;1439;-19
2023/07/31 12:57:20;;;;;;;;;;;;;;;;;;2216814;58;2312;-19
2023/07/31 12:59:51;;;;;;;;;;;;;;;;;;2215716;58;1715;-19
2023/07/31 13:02:21;;;;;;;;;;;;;;;;;;2215236;58;2062;-19
2023/07/31 13:04:51;;;;;;;;;;;;;;;;;;2216998;58;1435;-19
2023/07/31 13:07:22;;;;;;;;;;;;;;;;;;2214064;66;1880;-19
2023/07/31 13:09:52;;;;;;;;;;;;;;;;;;2217651;66;1988;-19
2023/07/31 13:12:22;;;;;;;;;;;;;;;;;;2216721;58;1892;-19
2023/07/31 13:14:53;;;;;;;;;;;;;;;;;;2217110;59;1164;-19
2023/07/31 13:17:23;;;;;;;;;;;;;;;;;;2215914;66;1963;-19
2023/07/31 13:19:53;;;;;;;;;;;;;;;;;;2216220;66;2380;-19
2023/07/31 13:22:23;;;;;;;;;;;;;;;;;;2213295;66;1342;-19
2023/07/31 13:24:54;;;;;;;;;;;;;;;;;;2217141;66;1353;-19
2023/07/31 13:27:24;;;;;;;;;;;;;;;;;;2216585;58;1363;-19
2023/07/31 13:29:55;;;;;;;;;;;;;;;;;;2216744;58;1939;-19
2023/07/31 13:32:26;;;;;;;;;;;;;;;;;;2212418;59;2818;-19
2023/07/31 13:34:57;;;;;;;;;;;;;;;;;;2215983;63;2547;-19
2023/07/31 13:37:27;;;;;;;;;;;;;;;;;;2216253;58;1997;-19
2023/07/31 13:39:57;;;;;;;;;;;;;;;;;;2217271;66;1776;-19
2023/07/31 13:42:28;;;;;;;;;;;;;;;;;;2217198;66;1797;-19
2023/07/31 13:44:58;;;;;;;;;;;;;;;;;;2216503;58;2363;-19
2023/07/31 13:47:29;;;;;;;;;;;;;;;;;;2216875;66;1478;-19
2023/07/31 13:49:59;;;;;;;;;;;;;;;;;;2216690;58;1992;-19
2023/07/31 13:52:29;;;;;;;;;;;;;;;;;;2217732;58;1400;-19
2023/07/31 13:54:59;;;;;;;;;;;;;;;;;;2216986;58;1832;-19
2023/07/31 13:57:30;;;;;;;;;;;;;;;;;;2217120;58;1211;-19
2023/07/31 14:00:00;;;;;;;;;;;;;;;;;;2217966;58;2611;-19
2023/07/31 14:02:30;;;;;;;;;;;;;;;;;;2217961;66;1607;-19
2023/07/31 14:05:01;;;;;;;;;;;;;;;;;;2217649;58;1302;-19
2023/07/31 14:07:32;;;;;;;;;;;;;;;;;;2214363;66;1428;-19
2023/07/31 14:10:03;;;;;;;;;;;;;;;;;;2213899;66;1978;-19
2023/07/31 14:12:34;;;;;;;;;;;;;;;;;;2215269;59;1677;-19
2023/07/31 14:15:04;;;;;;;;;;;;;;;;;;2218050;66;1588;-19
2023/07/31 14:17:35;;;;;;;;;;;;;;;;;;2217943;66;1303;-19
2023/07/31 14:20:05;;;;;;;;;;;;;;;;;;2218664;66;1853;-19
2023/07/31 14:22:36;;;;;;;;;;;;;;;;;;2218309;66;1306;-19
2023/07/31 14:25:06;;;;;;;;;;;;;;;;;;2218100;66;1262;-19
2023/07/31 14:27:37;;;;;;;;;;;;;;;;;;2218420;66;1875;-19
2023/07/31 14:30:07;;;;;;;;;;;;;;;;;;2220383;58;1928;-19
2023/07/31 14:32:38;;;;;;;;;;;;;;;;;;2218323;58;1712;-19
2023/07/31 14:35:08;;;;;;;;;;;;;;;;;;2215839;59;2385;-19
2023/07/31 14:37:42;;;;;;;;;;;;;;;;;;2217717;58;2675;-19
2023/07/31 14:40:13;;;;;;;;;;;;;;;;;;2217999;59;1720;-19
2023/07/31 14:42:43;;;;;;;;;;;;;;;;;;2218072;66;1394;-19
2023/07/31 14:45:13;;;;;;;;;;;;;;;;;;2217365;58;1693;-19
2023/07/31 14:47:43;;;;;;;;;;;;;;;;;;2218185;66;1409;-19
2023/07/31 14:50:14;;;;;;;;;;;;;;;;;;2217049;58;1971;-19
2023/07/31 14:52:45;;;;;;;;;;;;;;;;;;2218104;58;1379;-19
2023/07/31 14:55:15;;;;;;;;;;;;;;;;;;2218567;58;1493;-19
2023/07/31 14:57:45;;;;;;;;;;;;;;;;;;2218110;66;1201;-19
2023/07/31 15:00:16;;;;;;;;;;;;;;;;;;2217428;58;1126;-19
2023/07/31 15:02:46;;;;;;;;;;;;;;;;;;2214512;66;1565;-19
2023/07/31 15:05:16;;;;;;;;;;;;;;;;;;2216925;58;1320;-19
2023/07/31 15:07:46;;;;;;;;;;;;;;;;;;2217971;66;1242;-19
2023/07/31 15:10:16;;;;;;;;;;;;;;;;;;2217718;66;1981;-19
2023/07/31 15:12:47;;;;;;;;;;;;;;;;;;2218046;59;1594;-19
2023/07/31 15:15:17;;;;;;;;;;;;;;;;;;2216531;66;1192;-19
2023/07/31 15:17:48;;;;;;;;;;;;;;;;;;2217435;66;1180;-19
2023/07/31 15:20:18;;;;;;;;;;;;;;;;;;2219060;66;1625;-19
2023/07/31 15:22:48;;;;;;;;;;;;;;;;;;2217560;66;1279;-19
2023/07/31 15:25:18;;;;;;;;;;;;;;;;;;2217240;66;1770;-20
2023/07/31 15:27:49;;;;;;;;;;;;;;;;;;2217713;58;1577;-19
2023/07/31 15:30:19;;;;;;;;;;;;;;;;;;2218148;58;2002;-19
2023/07/31 15:32:49;;;;;;;;;;;;;;;;;;2217515;58;1528;-19
2023/07/31 15:35:20;;;;;;;;;;;;;;;;;;2217269;58;2421;-19
2023/07/31 15:37:50;;;;;;;;;;;;;;;;;;2217115;58;2219;-19
2023/07/31 15:40:21;;;;;;;;;;;;;;;;;;2217791;66;1901;-19
2023/07/31 15:42:51;;;;;;;;;;;;;;;;;;2218361;66;2136;-19
2023/07/31 15:45:21;;;;;;;;;;;;;;;;;;2217658;58;1636;-19
2023/07/31 15:47:51;;;;;;;;;;;;;;;;;;2217869;66;1382;-19
2023/07/31 15:50:21;;;;;;;;;;;;;;;;;;2217591;58;1912;-19
2023/07/31 15:52:52;;;;;;;;;;;;;;;;;;2217710;58;1341;-19
2023/07/31 15:55:24;;;;;;;;;;;;;;;;;;2217137;58;1424;-19
2023/07/31 15:57:54;;;;;;;;;;;;;;;;;;2217752;66;1375;-19
2023/07/31 16:00:24;;;;;;;;;;;;;;;;;;2218528;59;1213;-18
2023/07/31 16:02:54;;;;;;;;;;;;;;;;;;2217616;66;1433;-19
2023/07/31 16:05:24;;;;;;;;;;;;;;;;;;2217333;58;1290;-19
2023/07/31 16:07:55;;;;;;;;;;;;;;;;;;2216642;66;1586;-19
2023/07/31 16:10:25;;;;;;;;;;;;;;;;;;2218020;66;1938;-19
2023/07/31 16:12:56;;;;;;;;;;;;;;;;;;2217651;58;1821;-19
2023/07/31 16:15:26;;;;;;;;;;;;;;;;;;2216153;66;1440;-19
2023/07/31 16:17:56;;;;;;;;;;;;;;;;;;2217058;66;1708;-19
2023/07/31 16:20:27;;;;;;;;;;;;;;;;;;2216630;59;1512;-19
2023/07/31 16:22:57;;;;;;;;;;;;;;;;;;2217215;66;1286;-19
2023/07/31 16:25:27;;;;;;;;;;;;;;;;;;2217298;66;1130;-19
2023/07/31 16:27:57;;;;;;;;;;;;;;;;;;2217669;58;1667;-19
2023/07/31 16:30:28;;;;;;;;;;;;;;;;;;2218144;58;2029;-21
2023/07/31 16:32:58;;;;;;;;;;;;;;;;;;2217418;58;1413;-21
2023/07/31 16:35:28;;;;;;;;;;;;;;;;;;2217867;66;2433;-21
2023/07/31 16:37:58;;;;;;;;;;;;;;;;;;2216778;58;2685;-21
2023/07/31 16:40:29;;;;;;;;;;;;;;;;;;2216846;66;1843;-21
2023/07/31 16:42:59;;;;;;;;;;;;;;;;;;2217875;66;1822;-21
2023/07/31 16:45:29;;;;;;;;;;;;;;;;;;2217282;58;1791;-21
2023/07/31 16:48:00;;;;;;;;;;;;;;;;;;2218627;59;1659;-21
2023/07/31 16:50:31;;;;;;;;;;;;;;;;;;2217276;58;1953;-21
2023/07/31 16:53:01;;;;;;;;;;;;;;;;;;2217785;58;1316;-21
2023/07/31 16:55:33;;;;;;;;;;;;;;;;;;2217443;58;1767;-21
2023/07/31 16:58:04;;;;;;;;;;;;;;;;;;2218114;66;1489;-21
2023/07/31 17:00:34;;;;;;;;;;;;;;;;;;2218036;58;1334;-21
2023/07/31 17:03:05;;;;;;;;;;;;;;;;;;2217906;66;1342;-20
2023/07/31 17:05:36;;;;;;;;;;;;;;;;;;2217750;58;2145;-21
2023/07/31 17:08:06;;;;;;;;;;;;;;;;;;2217491;66;1766;-21
2023/07/31 17:10:36;;;;;;;;;;;;;;;;;;2217336;66;2002;-21
2023/07/31 17:13:06;;;;;;;;;;;;;;;;;;2217911;58;1652;-21
2023/07/31 17:15:36;;;;;;;;;;;;;;;;;;2217587;66;2181;-21
2023/07/31 17:18:10;;;;;;;;;;;;;;;;;;2217316;66;1721;-20
2023/07/31 17:20:40;;;;;;;;;;;;;;;;;;2215469;66;1698;-20
2023/07/31 17:23:10;;;;;;;;;;;;;;;;;;2217421;58;1508;-21
2023/07/31 17:25:40;;;;;;;;;;;;;;;;;;2217973;58;1508;-21
2023/07/31 17:28:11;;;;;;;;;;;;;;;;;;2218474;58;1434;-21